sensor_id;sensor_type;location;lat;lon;timestamp;P1;durP1;ratioP1;P2;durP2;ratioP2
21239;SDS011;10778;48.962;9.018;2022-08-20T00:01:02;2.75;;;1.50;;
21239;SDS011;10778;48.962;9.018;2022-08-20T00:03:30;1.63;;;1.30;;
21239;SDS011;10778;48.962;9.018;2022-08-20T00:06:08;1.70;;;1.20;;
21239;SDS011;10778;48.962;9.018;2022-08-20T00:08:37;1.30;;;1.20;;
21239;SDS011;10778;48.962;9.018;2022-08-20T00:11:05;2.22;;;1.38;;
21239;SDS011;10778;48.962;9.018;2022-08-20T00:13:36;2.00;;;1.15;;
21239;SDS011;10778;48.962;9.018;2022-08-20T00:16:05;1.27;;;1.17;;
21239;SDS011;10778;48.962;9.018;2022-08-20T00:18:33;1.10;;;1.00;;
21239;SDS011;10778;48.962;9.018;2022-08-20T00:21:02;2.22;;;1.20;;
21239;SDS011;10778;48.962;9.018;2022-08-20T00:23:30;1.85;;;1.30;;
21239;SDS011;10778;48.962;9.018;2022-08-20T00:25:56;1.80;;;1.30;;
21239;SDS011;10778;48.962;9.018;2022-08-20T00:28:22;1.52;;;1.10;;
21239;SDS011;10778;48.962;9.018;2022-08-20T00:30:48;2.15;;;1.27;;
21239;SDS011;10778;48.962;9.018;2022-08-20T00:33:17;2.65;;;1.08;;
21239;SDS011;10778;48.962;9.018;2022-08-20T00:35:48;1.83;;;1.30;;
21239;SDS011;10778;48.962;9.018;2022-08-20T00:38:18;2.15;;;1.20;;
21239;SDS011;10778;48.962;9.018;2022-08-20T00:40:46;1.58;;;1.23;;
21239;SDS011;10778;48.962;9.018;2022-08-20T00:46:03;1.38;;;1.27;;
21239;SDS011;10778;48.962;9.018;2022-08-20T00:48:33;1.33;;;1.02;;
21239;SDS011;10778;48.962;9.018;2022-08-20T00:51:04;1.30;;;1.20;;
21239;SDS011;10778;48.962;9.018;2022-08-20T00:53:36;2.28;;;1.20;;
21239;SDS011;10778;48.962;9.018;2022-08-20T00:56:04;3.15;;;1.25;;
21239;SDS011;10778;48.962;9.018;2022-08-20T00:58:32;2.38;;;1.15;;
21239;SDS011;10778;48.962;9.018;2022-08-20T01:00:58;1.60;;;1.25;;
21239;SDS011;10778;48.962;9.018;2022-08-20T01:03:24;2.30;;;1.30;;
21239;SDS011;10778;48.962;9.018;2022-08-20T01:05:51;1.25;;;1.13;;
21239;SDS011;10778;48.962;9.018;2022-08-20T01:08:18;1.55;;;1.10;;
21239;SDS011;10778;48.962;9.018;2022-08-20T01:10:46;1.33;;;1.20;;
21239;SDS011;10778;48.962;9.018;2022-08-20T01:13:16;1.20;;;1.10;;
21239;SDS011;10778;48.962;9.018;2022-08-20T01:15:47;1.40;;;1.15;;
21239;SDS011;10778;48.962;9.018;2022-08-20T01:18:19;2.20;;;1.20;;
21239;SDS011;10778;48.962;9.018;2022-08-20T01:21:01;2.00;;;1.27;;
21239;SDS011;10778;48.962;9.018;2022-08-20T01:23:41;2.35;;;1.15;;
21239;SDS011;10778;48.962;9.018;2022-08-20T01:26:18;1.92;;;1.40;;
21239;SDS011;10778;48.962;9.018;2022-08-20T01:28:53;1.38;;;1.17;;
21239;SDS011;10778;48.962;9.018;2022-08-20T01:31:22;1.30;;;1.20;;
21239;SDS011;10778;48.962;9.018;2022-08-20T01:33:50;1.40;;;1.20;;
21239;SDS011;10778;48.962;9.018;2022-08-20T01:36:20;1.48;;;1.23;;
21239;SDS011;10778;48.962;9.018;2022-08-20T01:38:49;2.67;;;1.50;;
21239;SDS011;10778;48.962;9.018;2022-08-20T01:41:19;1.65;;;1.40;;
21239;SDS011;10778;48.962;9.018;2022-08-20T01:44:00;1.40;;;1.30;;
21239;SDS011;10778;48.962;9.018;2022-08-20T01:46:27;2.08;;;1.25;;
21239;SDS011;10778;48.962;9.018;2022-08-20T01:48:56;2.55;;;1.25;;
21239;SDS011;10778;48.962;9.018;2022-08-20T01:51:24;2.75;;;1.40;;
21239;SDS011;10778;48.962;9.018;2022-08-20T01:53:54;1.92;;;1.20;;
21239;SDS011;10778;48.962;9.018;2022-08-20T01:56:23;2.25;;;1.20;;
21239;SDS011;10778;48.962;9.018;2022-08-20T01:58:52;1.50;;;1.20;;
21239;SDS011;10778;48.962;9.018;2022-08-20T02:01:23;1.42;;;1.27;;
21239;SDS011;10778;48.962;9.018;2022-08-20T02:03:53;1.90;;;1.35;;
21239;SDS011;10778;48.962;9.018;2022-08-20T02:06:21;2.28;;;1.50;;
21239;SDS011;10778;48.962;9.018;2022-08-20T02:08:51;1.70;;;1.40;;
21239;SDS011;10778;48.962;9.018;2022-08-20T02:11:20;1.45;;;1.30;;
21239;SDS011;10778;48.962;9.018;2022-08-20T02:13:46;2.03;;;1.50;;
21239;SDS011;10778;48.962;9.018;2022-08-20T02:16:21;1.67;;;1.30;;
21239;SDS011;10778;48.962;9.018;2022-08-20T02:18:52;1.83;;;1.55;;
21239;SDS011;10778;48.962;9.018;2022-08-20T02:21:23;1.42;;;1.15;;
21239;SDS011;10778;48.962;9.018;2022-08-20T02:23:53;1.50;;;1.15;;
21239;SDS011;10778;48.962;9.018;2022-08-20T02:26:20;1.40;;;1.30;;
21239;SDS011;10778;48.962;9.018;2022-08-20T02:28:47;3.47;;;1.70;;
21239;SDS011;10778;48.962;9.018;2022-08-20T02:31:19;2.33;;;1.85;;
21239;SDS011;10778;48.962;9.018;2022-08-20T02:33:46;3.63;;;1.63;;
21239;SDS011;10778;48.962;9.018;2022-08-20T02:36:13;1.60;;;1.48;;
21239;SDS011;10778;48.962;9.018;2022-08-20T02:38:42;3.63;;;1.60;;
21239;SDS011;10778;48.962;9.018;2022-08-20T02:41:09;3.15;;;1.73;;
21239;SDS011;10778;48.962;9.018;2022-08-20T02:43:36;2.50;;;1.75;;
21239;SDS011;10778;48.962;9.018;2022-08-20T02:46:03;2.13;;;1.55;;
21239;SDS011;10778;48.962;9.018;2022-08-20T02:48:30;1.95;;;1.70;;
21239;SDS011;10778;48.962;9.018;2022-08-20T02:50:59;2.58;;;2.00;;
21239;SDS011;10778;48.962;9.018;2022-08-20T02:53:27;2.17;;;1.67;;
21239;SDS011;10778;48.962;9.018;2022-08-20T02:55:55;2.90;;;1.70;;
21239;SDS011;10778;48.962;9.018;2022-08-20T02:58:22;1.98;;;1.52;;
21239;SDS011;10778;48.962;9.018;2022-08-20T03:00:48;3.03;;;1.70;;
21239;SDS011;10778;48.962;9.018;2022-08-20T03:03:15;2.58;;;1.60;;
21239;SDS011;10778;48.962;9.018;2022-08-20T03:05:47;2.95;;;1.75;;
21239;SDS011;10778;48.962;9.018;2022-08-20T03:08:16;1.85;;;1.55;;
21239;SDS011;10778;48.962;9.018;2022-08-20T03:10:44;3.90;;;2.00;;
21239;SDS011;10778;48.962;9.018;2022-08-20T03:13:12;2.20;;;1.90;;
21239;SDS011;10778;48.962;9.018;2022-08-20T03:15:42;2.55;;;1.90;;
21239;SDS011;10778;48.962;9.018;2022-08-20T03:18:10;1.77;;;1.67;;
21239;SDS011;10778;48.962;9.018;2022-08-20T03:20:37;2.28;;;1.70;;
21239;SDS011;10778;48.962;9.018;2022-08-20T03:23:03;2.20;;;1.70;;
21239;SDS011;10778;48.962;9.018;2022-08-20T03:25:29;2.47;;;2.00;;
21239;SDS011;10778;48.962;9.018;2022-08-20T03:27:55;2.33;;;1.80;;
21239;SDS011;10778;48.962;9.018;2022-08-20T03:30:22;3.65;;;1.92;;
21239;SDS011;10778;48.962;9.018;2022-08-20T03:32:50;2.25;;;2.00;;
21239;SDS011;10778;48.962;9.018;2022-08-20T03:35:17;3.25;;;2.10;;
21239;SDS011;10778;48.962;9.018;2022-08-20T03:37:45;2.13;;;1.92;;
21239;SDS011;10778;48.962;9.018;2022-08-20T03:40:12;2.30;;;2.10;;
21239;SDS011;10778;48.962;9.018;2022-08-20T03:42:42;2.72;;;2.00;;
21239;SDS011;10778;48.962;9.018;2022-08-20T03:45:08;2.55;;;2.15;;
21239;SDS011;10778;48.962;9.018;2022-08-20T03:47:37;2.30;;;1.90;;
21239;SDS011;10778;48.962;9.018;2022-08-20T03:50:05;2.50;;;2.30;;
21239;SDS011;10778;48.962;9.018;2022-08-20T03:52:33;2.92;;;2.50;;
21239;SDS011;10778;48.962;9.018;2022-08-20T03:54:59;3.95;;;2.30;;
21239;SDS011;10778;48.962;9.018;2022-08-20T03:57:25;3.67;;;2.55;;
21239;SDS011;10778;48.962;9.018;2022-08-20T03:59:52;2.88;;;2.50;;
21239;SDS011;10778;48.962;9.018;2022-08-20T04:02:18;2.75;;;2.55;;
21239;SDS011;10778;48.962;9.018;2022-08-20T04:04:44;2.60;;;2.28;;
21239;SDS011;10778;48.962;9.018;2022-08-20T04:07:15;2.75;;;2.40;;
21239;SDS011;10778;48.962;9.018;2022-08-20T04:09:53;2.42;;;2.22;;
21239;SDS011;10778;48.962;9.018;2022-08-20T04:12:20;2.88;;;2.25;;
21239;SDS011;10778;48.962;9.018;2022-08-20T04:14:48;3.28;;;2.58;;
21239;SDS011;10778;48.962;9.018;2022-08-20T04:17:16;2.60;;;2.40;;
21239;SDS011;10778;48.962;9.018;2022-08-20T04:19:43;3.40;;;2.50;;
21239;SDS011;10778;48.962;9.018;2022-08-20T04:22:10;3.55;;;2.80;;
21239;SDS011;10778;48.962;9.018;2022-08-20T04:24:40;4.18;;;2.70;;
21239;SDS011;10778;48.962;9.018;2022-08-20T04:27:07;3.13;;;2.83;;
21239;SDS011;10778;48.962;9.018;2022-08-20T04:29:35;4.90;;;2.90;;
21239;SDS011;10778;48.962;9.018;2022-08-20T04:32:03;3.10;;;2.67;;
21239;SDS011;10778;48.962;9.018;2022-08-20T04:34:30;3.40;;;2.70;;
21239;SDS011;10778;48.962;9.018;2022-08-20T04:36:56;3.65;;;3.00;;
21239;SDS011;10778;48.962;9.018;2022-08-20T04:39:22;4.78;;;2.88;;
21239;SDS011;10778;48.962;9.018;2022-08-20T04:41:48;3.78;;;3.08;;
21239;SDS011;10778;48.962;9.018;2022-08-20T04:44:14;3.85;;;2.90;;
21239;SDS011;10778;48.962;9.018;2022-08-20T04:46:40;4.25;;;3.28;;
21239;SDS011;10778;48.962;9.018;2022-08-20T04:49:07;3.63;;;3.10;;
21239;SDS011;10778;48.962;9.018;2022-08-20T04:51:33;4.07;;;3.15;;
21239;SDS011;10778;48.962;9.018;2022-08-20T04:53:59;4.50;;;3.13;;
21239;SDS011;10778;48.962;9.018;2022-08-20T04:56:27;3.92;;;3.50;;
21239;SDS011;10778;48.962;9.018;2022-08-20T04:58:56;4.90;;;3.47;;
21239;SDS011;10778;48.962;9.018;2022-08-20T05:01:24;3.90;;;3.42;;
21239;SDS011;10778;48.962;9.018;2022-08-20T05:03:51;4.65;;;3.42;;
21239;SDS011;10778;48.962;9.018;2022-08-20T05:06:22;3.78;;;3.20;;
21239;SDS011;10778;48.962;9.018;2022-08-20T05:08:51;4.03;;;3.63;;
21239;SDS011;10778;48.962;9.018;2022-08-20T05:11:18;4.00;;;3.60;;
21239;SDS011;10778;48.962;9.018;2022-08-20T05:13:46;4.00;;;3.60;;
21239;SDS011;10778;48.962;9.018;2022-08-20T05:16:13;6.43;;;3.40;;
21239;SDS011;10778;48.962;9.018;2022-08-20T05:18:39;4.13;;;3.40;;
21239;SDS011;10778;48.962;9.018;2022-08-20T05:21:05;5.15;;;3.50;;
21239;SDS011;10778;48.962;9.018;2022-08-20T05:23:32;4.45;;;3.63;;
21239;SDS011;10778;48.962;9.018;2022-08-20T05:25:59;4.85;;;3.53;;
21239;SDS011;10778;48.962;9.018;2022-08-20T05:28:26;3.65;;;3.35;;
21239;SDS011;10778;48.962;9.018;2022-08-20T05:30:57;4.35;;;3.60;;
21239;SDS011;10778;48.962;9.018;2022-08-20T05:33:25;3.75;;;3.35;;
21239;SDS011;10778;48.962;9.018;2022-08-20T05:35:54;4.63;;;3.45;;
21239;SDS011;10778;48.962;9.018;2022-08-20T05:38:23;5.07;;;3.65;;
21239;SDS011;10778;48.962;9.018;2022-08-20T05:40:51;3.67;;;3.20;;
21239;SDS011;10778;48.962;9.018;2022-08-20T05:43:17;3.50;;;3.20;;
21239;SDS011;10778;48.962;9.018;2022-08-20T05:45:45;4.00;;;3.58;;
21239;SDS011;10778;48.962;9.018;2022-08-20T05:48:15;6.20;;;3.35;;
21239;SDS011;10778;48.962;9.018;2022-08-20T05:50:44;4.55;;;3.60;;
21239;SDS011;10778;48.962;9.018;2022-08-20T05:53:14;5.75;;;3.75;;
21239;SDS011;10778;48.962;9.018;2022-08-20T05:55:41;3.90;;;3.50;;
21239;SDS011;10778;48.962;9.018;2022-08-20T05:58:13;5.18;;;3.42;;
21239;SDS011;10778;48.962;9.018;2022-08-20T06:00:43;5.18;;;3.85;;
21239;SDS011;10778;48.962;9.018;2022-08-20T06:03:09;4.05;;;3.65;;
21239;SDS011;10778;48.962;9.018;2022-08-20T06:05:54;3.95;;;3.55;;
21239;SDS011;10778;48.962;9.018;2022-08-20T06:08:20;4.13;;;3.53;;
21239;SDS011;10778;48.962;9.018;2022-08-20T06:10:46;4.85;;;3.75;;
21239;SDS011;10778;48.962;9.018;2022-08-20T06:13:12;5.05;;;3.88;;
21239;SDS011;10778;48.962;9.018;2022-08-20T06:15:38;5.32;;;3.80;;
21239;SDS011;10778;48.962;9.018;2022-08-20T06:18:05;4.45;;;4.05;;
21239;SDS011;10778;48.962;9.018;2022-08-20T06:20:33;4.68;;;4.20;;
21239;SDS011;10778;48.962;9.018;2022-08-20T06:23:00;5.38;;;4.32;;
21239;SDS011;10778;48.962;9.018;2022-08-20T06:25:26;5.07;;;3.92;;
21239;SDS011;10778;48.962;9.018;2022-08-20T06:27:54;5.53;;;4.03;;
21239;SDS011;10778;48.962;9.018;2022-08-20T06:30:20;5.05;;;4.00;;
21239;SDS011;10778;48.962;9.018;2022-08-20T06:32:46;6.35;;;4.22;;
21239;SDS011;10778;48.962;9.018;2022-08-20T06:35:12;6.38;;;3.85;;
21239;SDS011;10778;48.962;9.018;2022-08-20T06:37:39;5.13;;;4.25;;
21239;SDS011;10778;48.962;9.018;2022-08-20T06:40:06;6.00;;;4.07;;
21239;SDS011;10778;48.962;9.018;2022-08-20T06:42:33;5.60;;;4.25;;
21239;SDS011;10778;48.962;9.018;2022-08-20T06:44:59;4.50;;;4.10;;
21239;SDS011;10778;48.962;9.018;2022-08-20T06:47:29;4.95;;;4.30;;
21239;SDS011;10778;48.962;9.018;2022-08-20T06:49:56;4.93;;;4.20;;
21239;SDS011;10778;48.962;9.018;2022-08-20T06:52:22;6.75;;;4.60;;
21239;SDS011;10778;48.962;9.018;2022-08-20T06:54:48;5.10;;;4.10;;
21239;SDS011;10778;48.962;9.018;2022-08-20T06:57:14;5.80;;;3.97;;
21239;SDS011;10778;48.962;9.018;2022-08-20T06:59:41;4.40;;;3.97;;
21239;SDS011;10778;48.962;9.018;2022-08-20T07:02:07;4.90;;;4.20;;
21239;SDS011;10778;48.962;9.018;2022-08-20T07:04:33;5.40;;;4.35;;
21239;SDS011;10778;48.962;9.018;2022-08-20T07:07:00;6.45;;;4.47;;
21239;SDS011;10778;48.962;9.018;2022-08-20T07:09:26;5.40;;;4.70;;
21239;SDS011;10778;48.962;9.018;2022-08-20T07:11:53;6.45;;;4.07;;
21239;SDS011;10778;48.962;9.018;2022-08-20T07:14:19;4.93;;;4.03;;
21239;SDS011;10778;48.962;9.018;2022-08-20T07:16:45;7.10;;;4.20;;
21239;SDS011;10778;48.962;9.018;2022-08-20T07:19:12;5.25;;;4.07;;
21239;SDS011;10778;48.962;9.018;2022-08-20T07:21:39;6.10;;;4.50;;
21239;SDS011;10778;48.962;9.018;2022-08-20T07:24:05;6.10;;;4.20;;
21239;SDS011;10778;48.962;9.018;2022-08-20T07:26:31;4.57;;;4.03;;
21239;SDS011;10778;48.962;9.018;2022-08-20T07:28:59;5.15;;;4.15;;
21239;SDS011;10778;48.962;9.018;2022-08-20T07:31:25;5.88;;;4.32;;
21239;SDS011;10778;48.962;9.018;2022-08-20T07:34:09;5.90;;;4.07;;
21239;SDS011;10778;48.962;9.018;2022-08-20T07:36:36;5.40;;;4.40;;
21239;SDS011;10778;48.962;9.018;2022-08-20T07:39:02;7.20;;;4.28;;
21239;SDS011;10778;48.962;9.018;2022-08-20T07:41:31;4.90;;;3.92;;
21239;SDS011;10778;48.962;9.018;2022-08-20T07:43:57;4.97;;;3.63;;
21239;SDS011;10778;48.962;9.018;2022-08-20T07:46:23;4.75;;;3.92;;
21239;SDS011;10778;48.962;9.018;2022-08-20T07:48:49;5.55;;;3.92;;
21239;SDS011;10778;48.962;9.018;2022-08-20T07:51:16;4.13;;;3.72;;
21239;SDS011;10778;48.962;9.018;2022-08-20T07:53:45;5.10;;;3.90;;
21239;SDS011;10778;48.962;9.018;2022-08-20T07:56:14;4.90;;;3.70;;
21239;SDS011;10778;48.962;9.018;2022-08-20T07:58:45;4.03;;;3.45;;
21239;SDS011;10778;48.962;9.018;2022-08-20T08:01:19;6.75;;;3.60;;
21239;SDS011;10778;48.962;9.018;2022-08-20T08:03:50;3.50;;;3.20;;
21239;SDS011;10778;48.962;9.018;2022-08-20T08:06:20;3.97;;;3.20;;
21239;SDS011;10778;48.962;9.018;2022-08-20T08:08:47;3.97;;;3.10;;
21239;SDS011;10778;48.962;9.018;2022-08-20T08:11:14;5.22;;;3.08;;
21239;SDS011;10778;48.962;9.018;2022-08-20T08:13:41;3.33;;;3.03;;
21239;SDS011;10778;48.962;9.018;2022-08-20T08:16:08;3.75;;;3.20;;
21239;SDS011;10778;48.962;9.018;2022-08-20T08:18:36;4.00;;;2.80;;
21239;SDS011;10778;48.962;9.018;2022-08-20T08:21:17;4.05;;;3.50;;
21239;SDS011;10778;48.962;9.018;2022-08-20T08:23:43;4.25;;;3.22;;
21239;SDS011;10778;48.962;9.018;2022-08-20T08:26:11;3.95;;;3.42;;
21239;SDS011;10778;48.962;9.018;2022-08-20T08:28:39;5.57;;;3.38;;
21239;SDS011;10778;48.962;9.018;2022-08-20T08:31:06;4.72;;;3.60;;
21239;SDS011;10778;48.962;9.018;2022-08-20T08:33:32;5.32;;;3.40;;
21239;SDS011;10778;48.962;9.018;2022-08-20T08:36:05;4.35;;;3.20;;
21239;SDS011;10778;48.962;9.018;2022-08-20T08:38:34;3.92;;;3.53;;
21239;SDS011;10778;48.962;9.018;2022-08-20T08:41:06;4.63;;;3.50;;
21239;SDS011;10778;48.962;9.018;2022-08-20T08:43:42;4.38;;;3.50;;
21239;SDS011;10778;48.962;9.018;2022-08-20T08:46:11;4.28;;;3.10;;
21239;SDS011;10778;48.962;9.018;2022-08-20T08:48:43;4.80;;;3.13;;
21239;SDS011;10778;48.962;9.018;2022-08-20T08:51:13;4.75;;;2.90;;
21239;SDS011;10778;48.962;9.018;2022-08-20T08:53:43;4.15;;;2.85;;
21239;SDS011;10778;48.962;9.018;2022-08-20T08:56:19;3.42;;;3.13;;
21239;SDS011;10778;48.962;9.018;2022-08-20T08:58:49;6.85;;;3.10;;
21239;SDS011;10778;48.962;9.018;2022-08-20T09:01:16;3.92;;;2.83;;
21239;SDS011;10778;48.962;9.018;2022-08-20T09:03:45;4.15;;;3.00;;
21239;SDS011;10778;48.962;9.018;2022-08-20T09:06:17;4.10;;;3.10;;
21239;SDS011;10778;48.962;9.018;2022-08-20T09:08:49;4.25;;;3.10;;
21239;SDS011;10778;48.962;9.018;2022-08-20T09:11:19;3.55;;;3.17;;
21239;SDS011;10778;48.962;9.018;2022-08-20T09:13:48;4.85;;;3.10;;
21239;SDS011;10778;48.962;9.018;2022-08-20T09:16:15;3.67;;;2.97;;
21239;SDS011;10778;48.962;9.018;2022-08-20T09:18:41;4.13;;;2.80;;
21239;SDS011;10778;48.962;9.018;2022-08-20T09:21:07;4.30;;;3.03;;
21239;SDS011;10778;48.962;9.018;2022-08-20T09:23:34;4.38;;;2.75;;
21239;SDS011;10778;48.962;9.018;2022-08-20T09:26:01;3.13;;;2.80;;
21239;SDS011;10778;48.962;9.018;2022-08-20T09:28:27;5.60;;;2.90;;
21239;SDS011;10778;48.962;9.018;2022-08-20T09:30:53;3.13;;;2.83;;
21239;SDS011;10778;48.962;9.018;2022-08-20T09:33:19;2.80;;;2.50;;
21239;SDS011;10778;48.962;9.018;2022-08-20T09:35:45;3.88;;;2.88;;
21239;SDS011;10778;48.962;9.018;2022-08-20T09:38:11;2.90;;;2.70;;
21239;SDS011;10778;48.962;9.018;2022-08-20T09:40:38;4.10;;;2.97;;
21239;SDS011;10778;48.962;9.018;2022-08-20T09:43:05;5.00;;;2.78;;
21239;SDS011;10778;48.962;9.018;2022-08-20T09:45:32;3.60;;;3.30;;
21239;SDS011;10778;48.962;9.018;2022-08-20T09:47:59;4.55;;;3.30;;
21239;SDS011;10778;48.962;9.018;2022-08-20T09:50:26;5.32;;;2.92;;
21239;SDS011;10778;48.962;9.018;2022-08-20T09:52:54;3.75;;;2.88;;
21239;SDS011;10778;48.962;9.018;2022-08-20T09:55:36;4.13;;;3.35;;
21239;SDS011;10778;48.962;9.018;2022-08-20T09:58:51;2.88;;;2.58;;
21239;SDS011;10778;48.962;9.018;2022-08-20T10:01:06;4.15;;;2.78;;
21239;SDS011;10778;48.962;9.018;2022-08-20T10:03:34;3.00;;;2.70;;
21239;SDS011;10778;48.962;9.018;2022-08-20T10:06:00;2.58;;;2.25;;
21239;SDS011;10778;48.962;9.018;2022-08-20T10:08:26;3.50;;;2.35;;
21239;SDS011;10778;48.962;9.018;2022-08-20T10:10:52;6.50;;;2.70;;
21239;SDS011;10778;48.962;9.018;2022-08-20T10:13:18;3.13;;;2.55;;
21239;SDS011;10778;48.962;9.018;2022-08-20T10:15:44;4.60;;;2.53;;
21239;SDS011;10778;48.962;9.018;2022-08-20T10:18:10;3.00;;;2.70;;
21239;SDS011;10778;48.962;9.018;2022-08-20T10:20:37;3.20;;;2.47;;
21239;SDS011;10778;48.962;9.018;2022-08-20T10:23:03;3.08;;;2.67;;
21239;SDS011;10778;48.962;9.018;2022-08-20T10:25:29;2.95;;;2.53;;
21239;SDS011;10778;48.962;9.018;2022-08-20T10:27:55;2.95;;;2.65;;
21239;SDS011;10778;48.962;9.018;2022-08-20T10:30:21;3.70;;;2.55;;
21239;SDS011;10778;48.962;9.018;2022-08-20T10:32:47;3.70;;;2.75;;
21239;SDS011;10778;48.962;9.018;2022-08-20T10:35:13;4.95;;;2.92;;
21239;SDS011;10778;48.962;9.018;2022-08-20T10:37:39;3.75;;;2.88;;
21239;SDS011;10778;48.962;9.018;2022-08-20T10:40:06;3.38;;;3.00;;
21239;SDS011;10778;48.962;9.018;2022-08-20T10:42:32;3.85;;;3.50;;
21239;SDS011;10778;48.962;9.018;2022-08-20T10:44:59;3.33;;;2.83;;
21239;SDS011;10778;48.962;9.018;2022-08-20T10:47:26;2.95;;;2.72;;
21239;SDS011;10778;48.962;9.018;2022-08-20T10:49:55;2.90;;;2.60;;
21239;SDS011;10778;48.962;9.018;2022-08-20T10:52:22;3.10;;;2.70;;
21239;SDS011;10778;48.962;9.018;2022-08-20T10:54:48;4.15;;;2.72;;
21239;SDS011;10778;48.962;9.018;2022-08-20T10:57:16;2.60;;;2.40;;
21239;SDS011;10778;48.962;9.018;2022-08-20T10:59:45;3.47;;;2.60;;
21239;SDS011;10778;48.962;9.018;2022-08-20T11:02:13;3.08;;;2.50;;
21239;SDS011;10778;48.962;9.018;2022-08-20T11:04:40;2.40;;;2.10;;
21239;SDS011;10778;48.962;9.018;2022-08-20T11:07:19;3.47;;;2.30;;
21239;SDS011;10778;48.962;9.018;2022-08-20T11:09:53;2.63;;;2.30;;
21239;SDS011;10778;48.962;9.018;2022-08-20T11:12:20;4.80;;;2.67;;
21239;SDS011;10778;48.962;9.018;2022-08-20T11:14:48;3.25;;;2.22;;
21239;SDS011;10778;48.962;9.018;2022-08-20T11:17:22;3.30;;;2.38;;
21239;SDS011;10778;48.962;9.018;2022-08-20T11:19:50;4.72;;;2.55;;
21239;SDS011;10778;48.962;9.018;2022-08-20T11:22:16;3.53;;;2.20;;
21239;SDS011;10778;48.962;9.018;2022-08-20T11:24:43;2.42;;;2.10;;
21239;SDS011;10778;48.962;9.018;2022-08-20T11:27:09;1.92;;;1.67;;
21239;SDS011;10778;48.962;9.018;2022-08-20T11:29:41;1.65;;;1.48;;
21239;SDS011;10778;48.962;9.018;2022-08-20T11:32:07;1.60;;;1.50;;
21239;SDS011;10778;48.962;9.018;2022-08-20T11:34:33;1.60;;;1.50;;
21239;SDS011;10778;48.962;9.018;2022-08-20T11:36:59;1.85;;;1.50;;
21239;SDS011;10778;48.962;9.018;2022-08-20T11:39:25;2.08;;;1.50;;
21239;SDS011;10778;48.962;9.018;2022-08-20T11:41:51;2.10;;;1.30;;
21239;SDS011;10778;48.962;9.018;2022-08-20T11:44:17;1.50;;;1.40;;
21239;SDS011;10778;48.962;9.018;2022-08-20T11:46:43;1.33;;;1.23;;
21239;SDS011;10778;48.962;9.018;2022-08-20T11:49:09;1.65;;;1.13;;
21239;SDS011;10778;48.962;9.018;2022-08-20T11:51:35;1.35;;;1.10;;
21239;SDS011;10778;48.962;9.018;2022-08-20T11:54:02;1.52;;;1.15;;
21239;SDS011;10778;48.962;9.018;2022-08-20T11:56:29;1.23;;;1.10;;
21239;SDS011;10778;48.962;9.018;2022-08-20T11:58:55;1.95;;;1.10;;
21239;SDS011;10778;48.962;9.018;2022-08-20T12:01:22;2.17;;;1.00;;
21239;SDS011;10778;48.962;9.018;2022-08-20T12:03:48;2.33;;;1.10;;
21239;SDS011;10778;48.962;9.018;2022-08-20T12:06:14;1.17;;;1.08;;
21239;SDS011;10778;48.962;9.018;2022-08-20T12:08:40;3.08;;;1.00;;
21239;SDS011;10778;48.962;9.018;2022-08-20T12:11:06;1.42;;;1.27;;
21239;SDS011;10778;48.962;9.018;2022-08-20T12:13:33;1.40;;;1.27;;
21239;SDS011;10778;48.962;9.018;2022-08-20T12:16:01;3.05;;;1.30;;
21239;SDS011;10778;48.962;9.018;2022-08-20T12:18:27;2.40;;;1.23;;
21239;SDS011;10778;48.962;9.018;2022-08-20T12:20:53;1.60;;;1.30;;
21239;SDS011;10778;48.962;9.018;2022-08-20T12:23:19;1.70;;;1.20;;
21239;SDS011;10778;48.962;9.018;2022-08-20T12:25:45;2.22;;;1.55;;
21239;SDS011;10778;48.962;9.018;2022-08-20T12:28:12;1.20;;;1.10;;
21239;SDS011;10778;48.962;9.018;2022-08-20T12:30:38;2.20;;;1.40;;
21239;SDS011;10778;48.962;9.018;2022-08-20T12:33:04;2.53;;;1.42;;
21239;SDS011;10778;48.962;9.018;2022-08-20T12:35:30;2.17;;;1.50;;
21239;SDS011;10778;48.962;9.018;2022-08-20T12:37:57;2.00;;;1.40;;
21239;SDS011;10778;48.962;9.018;2022-08-20T12:40:24;1.30;;;1.20;;
21239;SDS011;10778;48.962;9.018;2022-08-20T12:42:52;2.75;;;1.40;;
21239;SDS011;10778;48.962;9.018;2022-08-20T12:45:19;1.70;;;1.50;;
21239;SDS011;10778;48.962;9.018;2022-08-20T12:47:45;2.15;;;1.40;;
21239;SDS011;10778;48.962;9.018;2022-08-20T12:50:14;3.10;;;1.30;;
21239;SDS011;10778;48.962;9.018;2022-08-20T12:52:48;2.83;;;1.50;;
21239;SDS011;10778;48.962;9.018;2022-08-20T12:55:15;5.18;;;1.50;;
21239;SDS011;10778;48.962;9.018;2022-08-20T12:57:48;2.65;;;1.30;;
21239;SDS011;10778;48.962;9.018;2022-08-20T13:00:21;1.88;;;1.42;;
21239;SDS011;10778;48.962;9.018;2022-08-20T13:02:49;1.98;;;1.25;;
21239;SDS011;10778;48.962;9.018;2022-08-20T13:05:16;1.40;;;1.30;;
21239;SDS011;10778;48.962;9.018;2022-08-20T13:07:43;2.28;;;1.45;;
21239;SDS011;10778;48.962;9.018;2022-08-20T13:10:11;1.75;;;1.30;;
21239;SDS011;10778;48.962;9.018;2022-08-20T13:12:58;1.40;;;1.30;;
21239;SDS011;10778;48.962;9.018;2022-08-20T13:15:28;1.48;;;1.38;;
21239;SDS011;10778;48.962;9.018;2022-08-20T13:17:57;1.85;;;1.30;;
21239;SDS011;10778;48.962;9.018;2022-08-20T13:20:25;1.13;;;1.10;;
21239;SDS011;10778;48.962;9.018;2022-08-20T13:22:52;1.27;;;1.10;;
21239;SDS011;10778;48.962;9.018;2022-08-20T13:25:19;1.65;;;1.20;;
21239;SDS011;10778;48.962;9.018;2022-08-20T13:27:46;1.08;;;0.90;;
21239;SDS011;10778;48.962;9.018;2022-08-20T13:30:14;2.42;;;1.00;;
21239;SDS011;10778;48.962;9.018;2022-08-20T13:32:43;3.80;;;0.90;;
21239;SDS011;10778;48.962;9.018;2022-08-20T13:35:09;3.47;;;1.00;;
21239;SDS011;10778;48.962;9.018;2022-08-20T13:37:36;3.20;;;1.20;;
21239;SDS011;10778;48.962;9.018;2022-08-20T13:40:03;2.13;;;0.88;;
21239;SDS011;10778;48.962;9.018;2022-08-20T13:42:31;1.85;;;0.88;;
21239;SDS011;10778;48.962;9.018;2022-08-20T13:44:57;0.70;;;0.50;;
21239;SDS011;10778;48.962;9.018;2022-08-20T13:47:30;1.38;;;1.27;;
21239;SDS011;10778;48.962;9.018;2022-08-20T13:50:00;0.70;;;0.70;;
21239;SDS011;10778;48.962;9.018;2022-08-20T13:52:30;1.75;;;0.80;;
21239;SDS011;10778;48.962;9.018;2022-08-20T13:54:57;2.40;;;1.10;;
21239;SDS011;10778;48.962;9.018;2022-08-20T13:57:23;2.15;;;0.80;;
21239;SDS011;10778;48.962;9.018;2022-08-20T13:59:50;0.93;;;0.60;;
21239;SDS011;10778;48.962;9.018;2022-08-20T14:02:19;0.80;;;0.70;;
21239;SDS011;10778;48.962;9.018;2022-08-20T14:04:46;0.50;;;0.50;;
21239;SDS011;10778;48.962;9.018;2022-08-20T14:07:14;1.58;;;0.60;;
21239;SDS011;10778;48.962;9.018;2022-08-20T14:09:43;0.68;;;0.50;;
21239;SDS011;10778;48.962;9.018;2022-08-20T14:12:12;0.80;;;0.55;;
21239;SDS011;10778;48.962;9.018;2022-08-20T14:14:39;0.70;;;0.50;;
21239;SDS011;10778;48.962;9.018;2022-08-20T14:17:12;1.00;;;0.90;;
21239;SDS011;10778;48.962;9.018;2022-08-20T14:19:42;1.23;;;0.82;;
21239;SDS011;10778;48.962;9.018;2022-08-20T14:22:10;1.45;;;1.20;;
21239;SDS011;10778;48.962;9.018;2022-08-20T14:24:36;0.88;;;0.50;;
21239;SDS011;10778;48.962;9.018;2022-08-20T14:27:04;0.88;;;0.60;;
21239;SDS011;10778;48.962;9.018;2022-08-20T14:29:35;0.90;;;0.65;;
21239;SDS011;10778;48.962;9.018;2022-08-20T14:32:04;1.88;;;0.60;;
21239;SDS011;10778;48.962;9.018;2022-08-20T14:34:32;2.88;;;0.60;;
21239;SDS011;10778;48.962;9.018;2022-08-20T14:37:09;1.58;;;0.70;;
21239;SDS011;10778;48.962;9.018;2022-08-20T14:39:36;1.05;;;0.70;;
21239;SDS011;10778;48.962;9.018;2022-08-20T14:42:03;2.05;;;0.70;;
21239;SDS011;10778;48.962;9.018;2022-08-20T14:44:29;1.55;;;0.60;;
21239;SDS011;10778;48.962;9.018;2022-08-20T14:46:55;1.85;;;0.50;;
21239;SDS011;10778;48.962;9.018;2022-08-20T14:49:21;0.80;;;0.68;;
21239;SDS011;10778;48.962;9.018;2022-08-20T14:51:47;0.57;;;0.50;;
21239;SDS011;10778;48.962;9.018;2022-08-20T14:54:13;2.42;;;0.60;;
21239;SDS011;10778;48.962;9.018;2022-08-20T14:56:39;0.80;;;0.70;;